Time;durP1;ratioP1;P1;durP2;ratioP2;P2;SDS_P1;SDS_P2;PMS_P1;PMS_P2;Temp;Humidity;BMP_temperature;BMP_pressure;BME280_temperature;BME280_humidity;BME280_pressure;Samples;Min_cycle;Max_cycle;Signal;HPM_P1;HPM_P2
2023/07/18 00:01:27;;;;;;;10.83;2.70;;;;;;;-145.69;63.67;51921.59;5093205;28;20194;-85
2023/07/18 00:03:58;;;;;;;6.03;2.78;;;;;;;-145.69;63.98;51897.84;5089397;28;20205;-84
2023/07/18 00:06:25;;;;;;;4.97;2.60;;;;;;;-145.69;64.13;51909.72;5073732;28;20203;-84
2023/07/18 00:08:56;;;;;;;6.63;3.00;;;;;;;-145.69;63.96;51901.78;5072988;28;20202;-84
2023/07/18 00:11:24;;;;;;;5.30;2.73;;;;;;;-145.69;64.22;51899.81;5083705;28;20193;-85
2023/07/18 00:13:51;;;;;;;10.30;2.90;;;;;;;-145.69;63.91;51929.50;5093357;28;20266;-85
2023/07/18 00:16:17;;;;;;;7.93;2.80;;;;;;;-145.69;63.51;51909.72;5093565;28;20251;-84
2023/07/18 00:18:44;;;;;;;6.47;2.67;;;;;;;-145.69;64.14;51933.47;5093611;28;20194;-84
2023/07/18 00:21:13;;;;;;;7.73;2.13;;;;;;;-145.69;64.01;51909.72;5093577;28;20198;-83
2023/07/18 00:23:43;;;;;;;5.77;2.83;;;;;;;-145.69;63.44;51933.47;5093484;28;20251;-82
2023/07/18 00:26:10;;;;;;;5.97;2.20;;;;;;;-145.69;61.79;51909.72;5093159;28;20220;-84
2023/07/18 00:28:39;;;;;;;5.65;2.38;;;;;;;-145.69;61.81;51907.72;5093373;28;20287;-84
2023/07/18 00:31:06;;;;;;;8.20;2.13;;;;;;;-145.69;62.15;51907.72;5093215;28;20209;-84
2023/07/18 00:33:32;;;;;;;9.77;2.10;;;;;;;-145.69;63.36;51913.69;5092933;28;20198;-82
2023/07/18 00:35:59;;;;;;;7.40;2.30;;;;;;;-145.69;62.86;51931.50;5092683;28;20210;-84
2023/07/18 00:38:27;;;;;;;6.07;1.77;;;;;;;-145.69;62.28;51909.72;5093191;28;20228;-84
2023/07/18 00:40:53;;;;;;;7.53;2.13;;;;;;;-145.69;61.99;51925.56;5092986;28;20190;-83
2023/07/18 00:43:21;;;;;;;6.47;2.07;;;;;;;-145.69;62.49;51915.66;5093104;28;20208;-84
2023/07/18 00:45:50;;;;;;;5.33;2.00;;;;;;;-145.69;62.75;51889.91;5092787;28;20202;-83
2023/07/18 00:48:19;;;;;;;4.97;2.10;;;;;;;-145.69;63.09;51941.41;5092783;28;20222;-84
2023/07/18 00:50:48;;;;;;;5.17;2.17;;;;;;;-145.69;63.23;51949.31;5092760;28;20730;-84
2023/07/18 00:53:14;;;;;;;8.60;1.97;;;;;;;-145.69;63.34;51907.72;5093112;28;20209;-84
2023/07/18 00:55:43;;;;;;;5.20;2.10;;;;;;;-145.69;63.56;51887.94;5092889;28;20198;-85
2023/07/18 00:58:12;;;;;;;10.90;2.53;;;;;;;-145.69;64.13;51876.06;5093934;28;20216;-84
2023/07/18 01:00:41;;;;;;;6.43;1.80;;;;;;;-145.69;63.91;51947.34;5096257;28;20230;-84
2023/07/18 01:03:08;;;;;;;4.23;1.93;;;;;;;-145.69;63.66;51921.59;5096721;28;20200;-84
2023/07/18 01:05:37;;;;;;;3.93;2.00;;;;;;;-145.69;64.54;51917.63;5096412;28;20247;-85
2023/07/18 01:08:44;;;;;;;4.30;2.07;;;;;;;-145.69;64.44;51921.59;5084186;28;20254;-83
2023/07/18 01:11:12;;;;;;;5.10;2.17;;;;;;;-145.69;64.71;51897.84;5095701;28;20603;-83
2023/07/18 01:13:39;;;;;;;5.20;1.93;;;;;;;-145.69;65.54;51939.41;5094439;28;20234;-83
2023/07/18 01:16:05;;;;;;;3.60;2.10;;;;;;;-145.69;65.21;51913.69;5095725;28;20198;-83
2023/07/18 01:18:32;;;;;;;7.77;2.00;;;;;;;-145.69;65.15;51945.34;5096281;28;20202;-83
2023/07/18 01:21:04;;;;;;;5.90;2.00;;;;;;;-145.69;64.65;51949.31;5096028;28;20194;-84
2023/07/18 01:23:32;;;;;;;4.83;1.70;;;;;;;-145.69;65.37;51909.72;5096237;28;20194;-84
2023/07/18 01:26:09;;;;;;;4.17;1.87;;;;;;;-145.69;65.48;51923.56;5095866;28;20255;-83
2023/07/18 01:28:35;;;;;;;2.53;1.80;;;;;;;-145.69;65.76;51901.78;5096094;28;20304;-85
2023/07/18 01:31:03;;;;;;;7.40;2.40;;;;;;;-145.69;66.13;51909.72;5095727;28;20202;-84
2023/07/18 01:33:30;;;;;;;6.37;1.80;;;;;;;-145.69;65.03;51905.75;5095689;28;20194;-85
2023/07/18 01:36:02;;;;;;;5.63;1.53;;;;;;;-145.69;64.98;51913.69;5095586;28;20209;-82
2023/07/18 01:38:30;;;;;;;2.77;1.53;;;;;;;-145.69;64.24;51893.88;5095121;28;20205;-84
2023/07/18 01:40:58;;;;;;;4.90;1.60;;;;;;;-145.69;63.76;51945.34;5095634;28;20210;-83
2023/07/18 01:43:25;;;;;;;6.70;1.47;;;;;;;-145.69;63.59;51905.75;5095979;28;20229;-85
2023/07/18 01:45:51;;;;;;;5.57;1.80;;;;;;;-145.69;63.90;51905.75;5095949;28;20198;-85
2023/07/18 01:48:23;;;;;;;7.47;1.93;;;;;;;-145.69;64.11;51907.72;5095580;28;20226;-84
2023/07/18 01:50:49;;;;;;;3.53;1.87;;;;;;;-145.69;64.13;51917.63;5095538;28;20204;-83
2023/07/18 01:53:16;;;;;;;7.03;2.00;;;;;;;-145.69;63.48;51897.84;5095821;28;20218;-84
2023/07/18 01:55:42;;;;;;;5.73;1.50;;;;;;;-145.69;63.09;51921.59;5095707;28;20233;-85
2023/07/18 01:58:10;;;;;;;4.00;1.60;;;;;;;-145.69;62.84;51953.28;5095660;28;20206;-84
2023/07/18 02:00:37;;;;;;;4.03;1.40;;;;;;;-145.69;62.78;51899.81;5094039;28;20284;-83
2023/07/18 02:03:05;;;;;;;2.50;1.43;;;;;;;-145.69;62.53;51941.41;5089410;28;20198;-84
2023/07/18 02:05:34;;;;;;;2.70;1.70;;;;;;;-145.69;62.86;51915.66;5095102;28;20259;-83
2023/07/18 02:08:01;;;;;;;3.67;1.50;;;;;;;-145.69;62.89;51955.25;5095297;28;20261;-83
2023/07/18 02:10:30;;;;;;;5.57;1.80;;;;;;;-145.69;62.29;51925.56;5094013;28;20557;-85
2023/07/18 02:12:58;;;;;;;3.87;1.33;;;;;;;-145.69;62.51;51937.44;5094722;28;20186;-84
2023/07/18 02:15:28;;;;;;;5.30;1.67;;;;;;;-145.69;61.60;51917.63;5095156;28;20194;-85
2023/07/18 02:17:55;;;;;;;2.30;1.40;;;;;;;-145.69;61.14;51923.56;5095611;28;20209;-85
2023/07/18 02:20:24;;;;;;;4.60;1.63;;;;;;;-145.69;61.74;51909.72;5094758;28;20467;-84
2023/07/18 02:22:51;;;;;;;2.37;1.40;;;;;;;-145.69;62.34;51901.78;5095059;28;20201;-83
2023/07/18 02:25:26;;;;;;;2.70;1.30;;;;;;;-145.69;61.54;51903.78;5094893;28;20623;-82
2023/07/18 02:27:53;;;;;;;2.40;1.53;;;;;;;-145.69;62.42;51955.25;5094362;28;20244;-83
2023/07/18 02:30:19;;;;;;;8.83;1.60;;;;;;;-145.69;62.62;51913.69;5094830;28;20202;-84
2023/07/18 02:32:51;;;;;;;5.93;1.63;;;;;;;-145.69;62.37;51923.56;5094959;28;20194;-84
2023/07/18 02:35:21;;;;;;;3.13;1.70;;;;;;;-145.69;62.80;51909.72;5094984;28;20263;-84
2023/07/18 02:37:48;;;;;;;3.77;1.47;;;;;;;-145.69;63.21;51901.78;5094775;28;20202;-83
2023/07/18 02:40:17;;;;;;;5.80;1.50;;;;;;;-145.69;62.59;51959.22;5094730;28;20205;-84
2023/07/18 02:42:46;;;;;;;7.00;1.63;;;;;;;-145.69;63.00;51933.47;5094425;28;20221;-84
2023/07/18 02:45:13;;;;;;;4.03;1.70;;;;;;;-145.69;63.31;51905.75;5094400;28;20202;-84
2023/07/18 02:47:50;;;;;;;5.67;1.67;;;;;;;-145.69;62.64;51935.47;5094122;28;20712;-83
2023/07/18 02:50:19;;;;;;;3.57;1.47;;;;;;;-145.69;62.88;51909.72;5094393;28;20204;-82
2023/07/18 02:52:45;;;;;;;3.60;1.60;;;;;;;-145.69;62.87;51929.50;5094286;28;20208;-83
2023/07/18 02:55:12;;;;;;;6.43;1.50;;;;;;;-145.69;62.04;51927.53;5094163;28;20206;-83
2023/07/18 02:57:38;;;;;;;2.67;1.60;;;;;;;-145.69;62.96;51901.78;5093949;28;20633;-83
2023/07/18 03:00:17;;;;;;;3.30;1.60;;;;;;;-145.69;62.62;51897.84;5094122;28;20213;-84
2023/07/18 03:02:45;;;;;;;7.47;1.80;;;;;;;-145.69;62.45;51923.56;5094252;28;20676;-84
2023/07/18 03:05:14;;;;;;;2.43;1.40;;;;;;;-145.69;62.29;51941.41;5094006;28;20205;-83
2023/07/18 03:07:44;;;;;;;5.97;1.73;;;;;;;-145.69;62.39;51921.59;5093872;28;20213;-84
2023/07/18 03:10:13;;;;;;;3.70;1.60;;;;;;;-145.69;62.07;51933.47;5094323;28;20205;-83
2023/07/18 03:12:41;;;;;;;5.90;1.93;;;;;;;-145.69;62.14;51937.44;5093421;28;20198;-82
2023/07/18 03:15:09;;;;;;;7.67;1.77;;;;;;;-145.69;61.95;51959.22;5093865;28;20190;-83
2023/07/18 03:17:36;;;;;;;9.67;1.93;;;;;;;-145.69;61.84;51933.47;5093979;28;20289;-83
2023/07/18 03:20:16;;;;;;;4.40;1.33;;;;;;;-145.69;61.56;51937.44;5093515;28;20203;-83
2023/07/18 03:22:44;;;;;;;3.40;1.17;;;;;;;-145.69;62.31;51957.25;5093209;28;20190;-82
2023/07/18 03:25:12;;;;;;;2.80;1.50;;;;;;;-145.69;62.76;51933.47;5073764;28;20209;-83
2023/07/18 03:27:38;;;;;;;2.30;1.40;;;;;;;-145.69;62.21;51925.56;5090796;28;20201;-82
2023/07/18 03:30:12;;;;;;;3.50;1.40;;;;;;;-145.69;61.89;51945.34;5093611;28;20209;-83
2023/07/18 03:32:42;;;;;;;4.60;1.47;;;;;;;-145.69;61.72;51917.63;5093777;28;20708;-82
2023/07/18 03:35:14;;;;;;;6.20;1.90;;;;;;;-145.69;61.58;51893.88;5093577;28;20198;-83
2023/07/18 03:37:40;;;;;;;3.93;1.30;;;;;;;-145.69;61.74;51943.38;5093649;28;20201;-84
2023/07/18 03:40:15;;;;;;;14.93;1.90;;;;;;;-145.69;62.21;51937.44;5093382;28;20209;-84
2023/07/18 03:42:45;;;;;;;5.70;1.60;;;;;;;-145.69;61.55;51921.59;5092052;28;20668;-83
2023/07/18 03:45:13;;;;;;;4.97;1.60;;;;;;;-145.69;62.69;51909.72;5093366;28;20209;-83
2023/07/18 03:47:42;;;;;;;2.80;1.53;;;;;;;-145.69;62.46;51933.47;5093675;28;20293;-84
2023/07/18 03:50:11;;;;;;;4.07;1.53;;;;;;;-145.69;62.02;51901.78;5093160;28;20198;-82
2023/07/18 03:52:38;;;;;;;4.40;1.80;;;;;;;-145.69;62.31;51913.69;5093382;28;20238;-83
2023/07/18 03:55:06;;;;;;;9.57;1.80;;;;;;;-145.69;62.57;51947.34;5093375;28;20202;-84
2023/07/18 03:57:34;;;;;;;6.37;1.40;;;;;;;-145.69;62.17;51917.63;5085271;28;20242;-83
2023/07/18 04:00:13;;;;;;;4.73;1.60;;;;;;;-145.69;62.85;51911.69;5073223;28;20206;-82
2023/07/18 04:02:40;;;;;;;7.63;1.37;;;;;;;-145.69;62.66;51891.88;5073023;28;20202;-83
2023/07/18 04:05:07;;;;;;;4.10;1.43;;;;;;;-145.69;61.96;51925.56;5072768;28;20203;-83
2023/07/18 04:07:33;;;;;;;5.23;1.50;;;;;;;-145.69;61.32;51913.69;5072946;28;20600;-80
2023/07/18 04:10:00;;;;;;;8.67;2.20;;;;;;;-145.69;60.67;51915.66;5072828;28;20313;-84
2023/07/18 04:12:27;;;;;;;6.10;1.73;;;;;;;-145.69;61.09;51933.47;5087417;28;20198;-84
2023/07/18 04:14:55;;;;;;;7.70;1.60;;;;;;;-145.69;61.24;51925.56;5093239;28;20688;-84
2023/07/18 04:17:27;;;;;;;3.70;1.53;;;;;;;-145.69;61.52;51889.91;5093066;28;20280;-84
2023/07/18 04:20:01;;;;;;;2.40;1.40;;;;;;;-145.69;61.90;51913.69;5093223;28;20226;-84
2023/07/18 04:22:29;;;;;;;7.23;1.60;;;;;;;-145.69;61.75;51917.63;5092705;28;20198;-84
2023/07/18 04:24:56;;;;;;;3.50;1.50;;;;;;;-145.69;61.55;51949.31;5092837;28;20834;-83
2023/07/18 04:27:23;;;;;;;4.30;1.47;;;;;;;-145.69;61.75;51921.59;5092871;28;20198;-84
2023/07/18 04:29:50;;;;;;;8.50;1.80;;;;;;;-145.69;61.71;51917.63;5092976;28;20257;-84
2023/07/18 04:32:20;;;;;;;6.53;1.83;;;;;;;-145.69;61.56;51923.56;5092954;28;20210;-83
2023/07/18 04:34:50;;;;;;;4.60;1.77;;;;;;;-145.69;61.05;51933.47;5096497;28;20664;-84
2023/07/18 04:37:17;;;;;;;2.80;1.20;;;;;;;-145.69;60.94;51943.38;5096655;28;20782;-83
2023/07/18 04:39:44;;;;;;;3.17;1.43;;;;;;;-145.69;60.28;51905.75;5096817;28;20206;-83
2023/07/18 04:42:11;;;;;;;3.67;1.37;;;;;;;-145.69;60.01;51927.53;5096957;28;20379;-83
2023/07/18 04:44:38;;;;;;;3.23;1.47;;;;;;;-145.69;60.06;51947.34;5096768;28;20198;-83
2023/07/18 04:47:08;;;;;;;4.50;1.50;;;;;;;-145.69;59.96;51921.59;5096688;28;20205;-84
2023/07/18 04:49:39;;;;;;;5.20;1.80;;;;;;;-145.69;59.80;51893.88;5096066;28;20225;-84
2023/07/18 04:52:07;;;;;;;4.97;1.40;;;;;;;-145.69;60.29;51921.59;5096449;28;20240;-83
2023/07/18 04:54:34;;;;;;;3.63;1.40;;;;;;;-145.69;60.26;51937.44;5096890;28;20774;-83
2023/07/18 04:57:02;;;;;;;2.97;1.40;;;;;;;-145.69;60.11;51923.56;5096464;28;20198;-83
2023/07/18 04:59:35;;;;;;;4.67;1.50;;;;;;;-145.69;59.66;51897.84;5096208;28;20718;-83
2023/07/18 05:02:14;;;;;;;2.90;1.30;;;;;;;-145.69;59.04;51915.66;5095988;28;20263;-83
2023/07/18 05:04:44;;;;;;;2.65;1.17;;;;;;;-145.69;59.06;51937.44;5096336;28;20217;-83
2023/07/18 05:07:19;;;;;;;2.70;1.50;;;;;;;-145.69;59.53;51923.56;5096246;28;20206;-83
2023/07/18 05:09:48;;;;;;;4.33;1.30;;;;;;;-145.69;58.92;51909.72;5096099;28;20267;-84
2023/07/18 05:12:20;;;;;;;3.53;1.57;;;;;;;-145.69;58.68;51901.78;5095717;28;20198;-83
2023/07/18 05:14:46;;;;;;;4.07;1.40;;;;;;;-145.69;58.33;51921.59;5095922;28;20225;-83
2023/07/18 05:17:13;;;;;;;3.53;1.30;;;;;;;-145.69;58.71;51927.53;5096117;28;20205;-82
2023/07/18 05:19:39;;;;;;;3.00;1.17;;;;;;;-145.69;58.46;51933.47;5095931;28;20198;-82
2023/07/18 05:22:09;;;;;;;3.27;1.30;;;;;;;-145.69;57.98;51897.84;5095637;28;20205;-82
2023/07/18 05:24:39;;;;;;;7.33;1.23;;;;;;;-145.69;57.93;51929.50;5095804;28;20221;-82
2023/07/18 05:27:06;;;;;;;4.70;1.43;;;;;;;-145.69;57.40;51889.91;5095735;28;20710;-83
2023/07/18 05:29:32;;;;;;;12.70;1.50;;;;;;;-145.69;56.12;51909.72;5095354;28;20257;-82
2023/07/18 05:32:05;;;;;;;4.43;1.20;;;;;;;-145.69;54.73;51883.97;5095804;28;20198;-83
2023/07/18 05:34:33;;;;;;;5.10;1.52;;;;;;;-145.69;54.31;51897.84;5095967;28;20228;-83
2023/07/18 05:37:03;;;;;;;1.77;1.20;;;;;;;-145.69;52.46;51866.16;5095899;28;20205;-84
2023/07/18 05:39:31;;;;;;;3.78;1.38;;;;;;;-145.69;51.85;51860.22;5095849;28;20289;-83
2023/07/18 05:41:59;;;;;;;4.10;1.33;;;;;;;-145.69;51.40;51870.13;5095063;28;20203;-82
2023/07/18 05:44:26;;;;;;;4.00;1.40;;;;;;;-145.69;52.29;51895.84;5093772;28;20474;-83
2023/07/18 05:47:02;;;;;;;2.05;1.05;;;;;;;-145.69;51.62;51862.19;5075294;28;20287;-82
2023/07/18 05:49:28;;;;;;;3.08;1.13;;;;;;;-145.69;52.26;51856.25;5074804;28;20751;-82
2023/07/18 05:51:55;;;;;;;3.92;1.35;;;;;;;-145.69;52.46;51882.00;5075243;28;20207;-83
2023/07/18 05:54:22;;;;;;;2.42;1.40;;;;;;;-145.69;52.88;51858.22;5075058;28;20239;-83
2023/07/18 05:56:50;;;;;;;4.00;1.10;;;;;;;-145.69;52.69;51848.34;5075129;28;20202;-82
2023/07/18 05:59:21;;;;;;;2.85;1.30;;;;;;;-145.69;52.62;51885.94;5075152;28;20252;-82
2023/07/18 06:01:48;;;;;;;3.60;1.08;;;;;;;-145.69;53.04;51882.00;5075855;28;20206;-82
2023/07/18 06:04:15;;;;;;;3.15;1.10;;;;;;;-145.69;53.02;51852.28;5074860;28;20238;-82
2023/07/18 06:06:43;;;;;;;2.05;1.15;;;;;;;-145.69;53.83;51866.16;5074456;28;20301;-82
2023/07/18 06:09:09;;;;;;;4.57;1.30;;;;;;;-145.69;53.74;51872.09;5074686;28;20219;-81
2023/07/18 06:11:36;;;;;;;2.30;1.02;;;;;;;-145.69;52.54;51876.06;5079256;28;20192;-82
2023/07/18 06:14:05;;;;;;;4.88;1.35;;;;;;;-145.69;52.76;51864.16;5094790;28;20232;-82
2023/07/18 06:16:37;;;;;;;2.42;1.33;;;;;;;-145.69;52.16;51844.38;5094416;28;20308;-82
2023/07/18 06:19:04;;;;;;;4.97;1.27;;;;;;;-145.69;50.48;51864.16;5094601;28;20533;-82
2023/07/18 06:21:31;;;;;;;4.13;1.15;;;;;;;-145.69;50.24;51864.16;5093975;28;20230;-82
2023/07/18 06:23:58;;;;;;;2.17;1.35;;;;;;;-145.69;49.83;51870.13;5094427;28;20751;-82
2023/07/18 06:26:27;;;;;;;2.13;1.00;;;;;;;-145.69;49.19;51842.38;5094398;28;20664;-82
2023/07/18 06:29:00;;;;;;;2.42;1.20;;;;;;;-145.69;49.16;51874.06;5094363;28;20225;-82
2023/07/18 06:31:39;;;;;;;4.97;1.20;;;;;;;-145.69;48.13;51842.38;5094456;28;20194;-83
2023/07/18 06:34:05;;;;;;;3.60;1.27;;;;;;;-145.69;48.35;51838.44;5094330;28;20213;-81
2023/07/18 06:36:32;;;;;;;2.67;1.10;;;;;;;-145.69;47.30;51820.59;5094457;28;20205;-81
2023/07/18 06:39:01;;;;;;;4.18;1.00;;;;;;;-145.69;47.48;51824.56;5094101;28;20584;-81
2023/07/18 06:41:31;;;;;;;4.03;1.23;;;;;;;-145.69;47.09;51824.56;5094127;28;20198;-82
2023/07/18 06:43:58;;;;;;;1.90;0.82;;;;;;;-145.69;45.96;51810.72;5094400;28;20591;-82
2023/07/18 06:46:29;;;;;;;2.78;1.25;;;;;;;-145.69;46.20;51854.28;5093580;28;20190;-82
2023/07/18 06:48:59;;;;;;;2.58;1.10;;;;;;;-145.69;45.82;51830.50;5093721;28;20749;-82
2023/07/18 06:51:26;;;;;;;4.72;1.33;;;;;;;-145.69;45.09;51802.78;5092807;28;20650;-82
2023/07/18 06:53:56;;;;;;;2.50;1.15;;;;;;;-145.69;44.73;51854.28;5093667;28;20194;-82
2023/07/18 06:56:27;;;;;;;2.22;1.08;;;;;;;-145.69;44.82;51808.72;5093538;28;20599;-82
2023/07/18 06:58:56;;;;;;;1.70;1.27;;;;;;;-145.69;45.33;51830.50;5093542;28;20558;-81
2023/07/18 07:01:26;;;;;;;2.30;1.02;;;;;;;-145.69;45.34;51810.72;5093686;28;20198;-82
2023/07/18 07:03:58;;;;;;;2.58;1.13;;;;;;;-145.69;45.57;51786.94;5093597;28;20204;-82
2023/07/18 07:06:26;;;;;;;4.03;1.15;;;;;;;-145.69;44.71;51798.81;5093800;28;20712;-82
2023/07/18 07:08:56;;;;;;;4.05;1.23;;;;;;;-145.69;43.45;51806.75;5093536;28;20194;-82
2023/07/18 07:11:30;;;;;;;2.95;1.20;;;;;;;-145.69;42.69;51783.00;5093709;28;20255;-84
2023/07/18 07:13:58;;;;;;;5.22;1.27;;;;;;;-145.69;41.45;51792.88;5093846;28;20268;-84
2023/07/18 07:16:24;;;;;;;3.63;1.00;;;;;;;-145.69;41.23;51812.69;5093535;28;20201;-83
2023/07/18 07:19:11;;;;;;;1.90;1.00;;;;;;;-145.69;40.61;51786.94;5093783;28;20561;-83
2023/07/18 07:21:38;;;;;;;2.85;1.20;;;;;;;-145.69;40.22;51784.97;5092915;28;20247;-82
2023/07/18 07:24:15;;;;;;;3.90;1.40;;;;;;;-145.69;40.19;51775.06;5093207;28;20202;-82
2023/07/18 07:26:44;;;;;;;4.82;1.48;;;;;;;-145.69;39.75;51784.97;5093364;28;20212;-83
2023/07/18 07:29:13;;;;;;;4.40;1.40;;;;;;;-145.69;39.52;51783.00;5094075;28;20230;-83
2023/07/18 07:31:43;;;;;;;3.10;1.50;;;;;;;-145.69;38.73;51800.81;5093294;28;20595;-83
2023/07/18 07:34:13;;;;;;;2.53;1.30;;;;;;;-145.69;38.56;51763.19;5093563;28;20209;-84
2023/07/18 07:36:40;;;;;;;3.78;1.50;;;;;;;-145.69;40.28;51763.19;5093422;28;20210;-82
2023/07/18 07:39:10;;;;;;;1.52;1.20;;;;;;;-145.69;39.34;51771.09;5093398;28;20202;-85
2023/07/18 07:41:38;;;;;;;3.45;1.52;;;;;;;-145.69;38.29;51781.00;5093546;28;20209;-85
2023/07/18 07:44:08;;;;;;;3.72;1.55;;;;;;;-145.69;37.81;51739.44;5093805;28;20194;-85
2023/07/18 07:46:35;;;;;;;4.50;1.60;;;;;;;-145.69;37.46;51771.09;5093946;28;20205;-85
2023/07/18 07:49:07;;;;;;;5.95;2.15;;;;;;;-145.69;38.19;51783.00;5093201;28;20549;-85
2023/07/18 07:51:34;;;;;;;7.40;1.92;;;;;;;-145.69;38.19;51781.00;5092974;28;20198;-85
2023/07/18 07:54:02;;;;;;;5.10;1.77;;;;;;;-145.69;38.52;51751.31;5093324;28;20198;-85
2023/07/18 07:56:28;;;;;;;4.60;1.50;;;;;;;-145.69;38.19;51757.25;5092911;28;20193;-84
2023/07/18 07:58:55;;;;;;;4.47;1.80;;;;;;;-145.69;39.24;51759.22;5092327;28;20657;-83
2023/07/18 08:01:24;;;;;;;7.05;1.77;;;;;;;-145.69;39.30;51783.00;5093163;28;20300;-84
2023/07/18 08:03:53;;;;;;;5.55;1.90;;;;;;;-145.69;38.72;51753.28;5092531;28;20201;-84
2023/07/18 08:06:22;;;;;;;4.72;1.85;;;;;;;-145.69;38.69;51747.34;5093028;28;20198;-85
2023/07/18 08:08:58;;;;;;;3.35;1.50;;;;;;;-145.69;39.09;51737.44;5093878;28;20679;-84
2023/07/18 08:11:26;;;;;;;3.30;1.73;;;;;;;-145.69;38.31;51759.22;5077072;28;20208;-83
2023/07/18 08:13:54;;;;;;;5.05;2.00;;;;;;;-145.69;38.21;51755.25;5076838;28;20237;-83
2023/07/18 08:16:39;;;;;;;5.07;1.73;;;;;;;-145.69;38.68;51755.25;5076740;28;20199;-84
2023/07/18 08:19:08;;;;;;;2.42;1.60;;;;;;;-145.69;38.35;51723.59;5077165;28;20289;-83
2023/07/18 08:21:35;;;;;;;5.40;2.10;;;;;;;-145.69;38.66;51743.38;5093011;28;20190;-82
2023/07/18 08:24:04;;;;;;;5.68;2.28;;;;;;;-145.69;39.56;51763.19;5096665;28;20205;-83
2023/07/18 08:26:33;;;;;;;3.53;2.13;;;;;;;-145.69;38.96;51755.25;5095543;28;20237;-84
2023/07/18 08:28:59;;;;;;;4.40;2.08;;;;;;;-145.69;39.03;51749.31;5096978;28;20229;-86
2023/07/18 08:31:31;;;;;;;4.82;2.17;;;;;;;-145.69;38.93;51731.50;5096577;28;20226;-84
2023/07/18 08:34:01;;;;;;;5.65;2.10;;;;;;;-145.69;38.63;51749.31;5097287;28;20198;-86
2023/07/18 08:36:39;;;;;;;3.85;2.00;;;;;;;-145.69;38.03;51731.50;5097477;28;20198;-85
2023/07/18 08:39:08;;;;;;;4.55;2.35;;;;;;;-145.69;38.39;51739.44;5096732;28;20244;-85
2023/07/18 08:41:38;;;;;;;3.47;1.85;;;;;;;-145.69;37.93;51759.22;5096853;28;20205;-85
2023/07/18 08:44:07;;;;;;;3.75;2.05;;;;;;;-145.69;38.61;51729.53;5096578;28;20649;-86
2023/07/18 08:46:34;;;;;;;3.60;2.10;;;;;;;-145.69;38.84;51715.66;5098641;28;20269;-87
2023/07/18 08:49:04;;;;;;;8.35;2.13;;;;;;;-145.69;38.83;51723.59;5096815;28;20215;-85
2023/07/18 08:51:31;;;;;;;5.85;2.20;;;;;;;-145.69;38.69;51735.47;5097307;28;20719;-86
2023/07/18 08:54:07;;;;;;;6.13;2.25;;;;;;;-145.69;38.37;51735.47;5096636;28;20289;-88
2023/07/18 08:56:40;;;;;;;18.27;4.38;;;;;;;-145.69;38.69;51741.41;5098046;28;20243;-86
2023/07/18 08:59:13;;;;;;;13.88;3.72;;;;;;;-145.69;37.83;51719.63;5096713;28;20277;-84
2023/07/18 09:01:48;;;;;;;4.43;2.17;;;;;;;-145.69;38.46;51719.63;5096482;28;20443;-87
2023/07/18 09:04:18;;;;;;;5.00;2.75;;;;;;;-145.69;37.98;51721.59;5096820;28;20244;-86
2023/07/18 09:06:56;;;;;;;3.85;2.05;;;;;;;-145.69;37.47;51741.41;5096271;28;20233;-86
2023/07/18 09:09:28;;;;;;;4.43;2.45;;;;;;;-145.69;38.11;51697.84;5097457;28;20248;-86
2023/07/18 09:12:01;;;;;;;5.60;2.40;;;;;;;-145.69;37.06;51711.72;5097530;28;20198;-87
2023/07/18 09:14:36;;;;;;;7.22;2.45;;;;;;;-145.69;36.85;51719.63;5096659;28;20229;-87
2023/07/18 09:17:05;;;;;;;3.88;2.47;;;;;;;-145.69;37.32;51727.53;5095816;28;20206;-86
2023/07/18 09:19:39;;;;;;;4.78;2.20;;;;;;;-145.69;37.75;51739.44;5095739;28;20202;-86
2023/07/18 09:22:12;;;;;;;5.88;2.50;;;;;;;-145.69;37.52;51717.66;5095802;28;20202;-86
2023/07/18 09:24:40;;;;;;;5.85;2.50;;;;;;;-145.69;37.35;51709.72;5095749;28;20542;-86
2023/07/18 09:27:09;;;;;;;5.22;2.47;;;;;;;-145.69;36.88;51727.53;5095926;28;20260;-85
2023/07/18 09:29:43;;;;;;;4.63;2.40;;;;;;;-145.69;36.67;51709.72;5095645;28;20197;-86
2023/07/18 09:32:16;;;;;;;4.68;2.35;;;;;;;-145.69;36.65;51703.78;5096159;28;20617;-86
2023/07/18 09:34:54;;;;;;;5.80;2.35;;;;;;;-145.69;37.06;51680.03;5096172;28;20206;-87
2023/07/18 09:37:23;;;;;;;4.57;2.40;;;;;;;-145.69;37.01;51672.09;5095393;28;20197;-86
2023/07/18 09:39:54;;;;;;;6.43;2.78;;;;;;;-145.69;36.45;51670.13;5096127;28;20229;-86
2023/07/18 09:42:22;;;;;;;5.20;2.45;;;;;;;-145.69;35.34;51672.09;5096246;28;20201;-87
2023/07/18 09:44:51;;;;;;;5.13;2.10;;;;;;;-145.69;34.40;51640.44;5097116;28;20191;-87
2023/07/18 09:47:18;;;;;;;4.40;1.88;;;;;;;-145.69;34.79;51656.25;5097406;28;20198;-85
2023/07/18 09:49:47;;;;;;;8.77;2.47;;;;;;;-145.69;34.49;51664.19;5096998;28;20202;-86
2023/07/18 09:52:18;;;;;;;7.18;2.20;;;;;;;-145.69;35.22;51668.16;5099127;28;20280;-86
2023/07/18 09:54:57;;;;;;;7.28;2.38;;;;;;;-145.69;35.18;51678.03;5098214;28;20278;-86
2023/07/18 09:57:27;;;;;;;8.57;2.45;;;;;;;-145.69;35.23;51664.19;5099118;28;20292;-87
2023/07/18 09:59:58;;;;;;;3.80;2.33;;;;;;;-145.69;35.51;51664.19;5098974;28;20206;-86
2023/07/18 10:02:25;;;;;;;6.95;2.33;;;;;;;-145.69;35.50;51707.75;5099123;28;20202;-87
2023/07/18 10:04:54;;;;;;;4.43;1.95;;;;;;;-145.69;35.72;51652.31;5098636;28;20202;-87
2023/07/18 10:07:22;;;;;;;5.28;2.67;;;;;;;-145.69;35.73;51680.03;5097020;28;20564;-87
2023/07/18 10:09:48;;;;;;;3.95;2.00;;;;;;;-145.69;35.52;51693.88;5101935;28;20255;-87
2023/07/18 10:12:15;;;;;;;5.03;2.30;;;;;;;-145.69;34.83;51640.44;5093707;28;20202;-87
2023/07/18 10:15:00;;;;;;;3.70;2.10;;;;;;;-145.69;34.70;51628.53;5094089;28;20297;-86
2023/07/18 10:17:28;;;;;;;7.70;2.05;;;;;;;-145.69;35.04;51636.47;5095747;28;20221;-87
2023/07/18 10:19:55;;;;;;;5.15;2.17;;;;;;;-145.69;34.18;51640.44;5095457;28;20632;-86
2023/07/18 10:22:32;;;;;;;5.03;2.33;;;;;;;-145.69;34.42;51622.59;5095029;28;20194;-85
2023/07/18 10:25:00;;;;;;;4.13;2.03;;;;;;;-145.69;34.84;51620.63;5094807;28;20240;-86
2023/07/18 10:27:43;;;;;;;5.88;2.28;;;;;;;-145.69;34.42;51618.66;5095169;28;20571;-86
2023/07/18 10:30:13;;;;;;;3.28;2.10;;;;;;;-145.69;35.04;51652.31;5094435;28;20308;-87
2023/07/18 10:32:42;;;;;;;5.03;2.10;;;;;;;-145.69;36.09;51628.53;5094428;28;20285;-85
2023/07/18 10:35:10;;;;;;;5.60;2.22;;;;;;;-145.69;35.45;51624.59;5094845;28;20241;-85
2023/07/18 10:37:46;;;;;;;3.95;2.17;;;;;;;-145.69;34.03;51612.72;5094226;28;20204;-86
2023/07/18 10:40:31;;;;;;;5.00;2.40;;;;;;;-145.69;33.43;51602.81;5092840;28;20205;-86
2023/07/18 10:42:58;;;;;;;2.83;1.98;;;;;;;-145.69;32.86;51600.81;5094428;28;20202;-88
2023/07/18 10:45:26;;;;;;;4.03;2.28;;;;;;;-145.69;32.18;51588.94;5094482;28;20209;-88
2023/07/18 10:47:53;;;;;;;5.10;2.47;;;;;;;-145.69;32.43;51612.72;5098427;28;20202;-88
2023/07/18 10:50:19;;;;;;;4.90;2.80;;;;;;;-145.69;32.24;51604.78;5094511;28;20691;-87
2023/07/18 10:52:46;;;;;;;6.47;2.53;;;;;;;-145.69;32.19;51584.97;5093666;28;20194;-87
2023/07/18 10:55:15;;;;;;;7.30;2.78;;;;;;;-145.69;33.04;51604.78;5094242;28;20300;-86
2023/07/18 10:57:41;;;;;;;5.53;2.80;;;;;;;-145.69;33.77;51624.59;5092995;28;20252;-88
2023/07/18 11:00:09;;;;;;;4.50;2.20;;;;;;;-145.69;34.42;51640.44;5094749;28;20202;-88
2023/07/18 11:02:39;;;;;;;6.43;2.40;;;;;;;-145.69;34.44;51650.31;5095249;28;20197;-88
2023/07/18 11:05:10;;;;;;;8.02;2.70;;;;;;;-145.69;34.88;51652.31;5095338;28;20301;-87
2023/07/18 11:07:39;;;;;;;4.85;2.10;;;;;;;-145.69;35.70;51678.03;5096690;28;20202;-86
2023/07/18 11:10:08;;;;;;;5.20;2.17;;;;;;;-145.69;36.26;51695.88;5095458;28;20236;-86
2023/07/18 11:12:34;;;;;;;5.40;2.60;;;;;;;-145.69;38.46;51687.94;5096250;28;20213;-88
2023/07/18 11:15:05;;;;;;;6.20;2.22;;;;;;;-145.69;39.11;51693.88;5093523;28;20251;-88
2023/07/18 11:17:32;;;;;;;4.13;2.35;;;;;;;-145.69;39.42;51721.59;5096282;28;20213;-87
2023/07/18 11:20:04;;;;;;;7.45;2.40;;;;;;;-145.69;37.67;51707.75;5093761;28;20206;-84
2023/07/18 11:22:33;;;;;;;8.07;2.38;;;;;;;-145.69;37.80;51695.88;5095378;28;20209;-87
2023/07/18 11:25:00;;;;;;;7.93;2.60;;;;;;;-145.69;38.37;51743.38;5094918;28;20728;-88
2023/07/18 11:27:28;;;;;;;4.50;2.50;;;;;;;-145.69;38.47;51751.31;5095241;28;20198;-87